createdAt,value
2018-10-21T00:02:26.434Z,9.13
2018-10-21T00:04:56.285Z,11.08
2018-10-21T00:10:17.308Z,12.82
2018-10-21T00:12:47.025Z,11.63
2018-10-21T00:15:17.228Z,9.40
2018-10-21T00:17:46.845Z,10.75
2018-10-21T00:20:17.531Z,11.95
2018-10-21T00:22:47.681Z,11.35
2018-10-21T00:25:16.862Z,8.20
2018-10-21T00:27:46.776Z,10.20
2018-10-21T00:30:17.191Z,12.20
2018-10-21T00:32:51.494Z,10.80
2018-10-21T00:35:20.821Z,9.48
2018-10-21T00:37:51.633Z,11.88
2018-10-21T00:40:22.638Z,10.90
2018-10-21T00:42:52.542Z,11.45
2018-10-21T00:45:22.551Z,12.25
2018-10-21T00:47:51.897Z,13.13
2018-10-21T00:50:21.290Z,11.43
2018-10-21T00:52:51.510Z,10.40
2018-10-21T00:55:21.620Z,8.93
2018-10-21T00:57:52.855Z,11.75
2018-10-21T01:00:23.446Z,11.90
2018-10-21T01:02:52.855Z,10.45
2018-10-21T01:05:22.321Z,8.25
2018-10-21T01:07:51.892Z,10.20
2018-10-21T01:10:21.302Z,12.82
2018-10-21T01:12:51.950Z,10.40
2018-10-21T01:15:21.533Z,11.50
2018-10-21T01:17:51.107Z,13.32
2018-10-21T01:20:23.149Z,12.60
2018-10-21T01:22:53.845Z,11.25
2018-10-21T01:25:26.884Z,8.80
2018-10-21T01:27:57.033Z,11.68
2018-10-21T01:30:26.273Z,8.93
2018-10-21T01:32:55.450Z,11.30
2018-10-21T01:35:25.875Z,11.18
2018-10-21T01:37:56.349Z,10.90
2018-10-21T01:40:47.326Z,11.85
2018-10-21T01:43:22.063Z,8.50
2018-10-21T01:45:51.747Z,11.78
2018-10-21T01:48:22.072Z,9.30
2018-10-21T01:50:51.416Z,9.33
2018-10-21T01:53:51.488Z,10.85
2018-10-21T01:56:20.937Z,9.68
2018-10-21T01:58:50.940Z,9.58
2018-10-21T02:01:21.094Z,12.23
2018-10-21T02:03:50.634Z,9.38
2018-10-21T02:06:20.263Z,9.08
2018-10-21T02:08:52.824Z,12.25
2018-10-21T02:11:22.187Z,11.35
2018-10-21T02:13:53.825Z,12.47
2018-10-21T02:16:23.858Z,11.68
2018-10-21T02:18:54.383Z,9.08
2018-10-21T02:21:24.295Z,6.95
2018-10-21T02:23:54.145Z,8.48
2018-10-21T02:26:25.168Z,12.80
2018-10-21T02:28:56.505Z,14.47
2018-10-21T02:31:26.575Z,12.07
2018-10-21T02:33:56.623Z,13.08
2018-10-21T02:36:26.359Z,12.80
2018-10-21T02:38:55.873Z,12.00
2018-10-21T02:41:44.055Z,11.68
2018-10-21T02:44:16.397Z,12.45
2018-10-21T02:46:46.361Z,11.28
2018-10-21T02:49:16.567Z,10.53
2018-10-21T02:51:51.353Z,11.78
2018-10-21T02:54:23.673Z,9.23
2018-10-21T02:56:53.138Z,9.53
2018-10-21T02:59:22.867Z,9.55
2018-10-21T03:01:52.081Z,11.00
2018-10-21T03:04:21.831Z,11.50
2018-10-21T03:06:51.270Z,8.70
2018-10-21T03:09:20.647Z,11.20
2018-10-21T03:11:49.791Z,11.25
2018-10-21T03:14:19.047Z,12.30
2018-10-21T03:16:48.643Z,11.12
2018-10-21T03:19:18.002Z,11.40
2018-10-21T03:21:47.557Z,15.13
2018-10-21T03:24:17.007Z,11.53
2018-10-21T03:26:47.025Z,10.00
2018-10-21T03:29:16.941Z,11.53
2018-10-21T03:31:46.909Z,10.48
2018-10-21T03:34:16.185Z,10.63
2018-10-21T03:36:45.367Z,10.35
2018-10-21T03:39:15.111Z,8.60
2018-10-21T03:41:44.259Z,9.90
2018-10-21T03:44:13.951Z,9.08
2018-10-21T03:46:43.109Z,7.60
2018-10-21T03:49:12.302Z,9.48
2018-10-21T03:51:41.470Z,9.68
2018-10-21T03:54:10.635Z,10.05
2018-10-21T03:56:39.831Z,9.35
2018-10-21T03:59:09.152Z,9.23
2018-10-21T04:01:39.151Z,9.90
2018-10-21T04:04:08.339Z,10.48
2018-10-21T04:06:37.565Z,10.40
2018-10-21T04:09:07.894Z,9.83
2018-10-21T04:11:38.104Z,9.75
2018-10-21T04:14:08.143Z,8.60
2018-10-21T04:16:37.923Z,7.97
2018-10-21T04:19:07.473Z,7.00
2018-10-21T04:21:38.509Z,11.75
2018-10-21T04:24:09.571Z,8.48
2018-10-21T04:26:38.921Z,8.68
2018-10-21T04:29:10.147Z,12.98
2018-10-21T04:31:39.825Z,8.83
2018-10-21T04:34:10.463Z,7.92
2018-10-21T04:36:40.777Z,8.35
2018-10-21T04:39:24.170Z,7.85
2018-10-21T04:41:53.691Z,10.20
2018-10-21T04:44:22.957Z,8.58
2018-10-21T04:46:52.463Z,6.65
2018-10-21T04:49:21.895Z,7.05
2018-10-21T04:51:52.845Z,9.30
2018-10-21T04:54:22.313Z,9.08
2018-10-21T04:56:52.767Z,8.98
2018-10-21T04:59:22.759Z,9.68
2018-10-21T05:01:52.077Z,10.98
2018-10-21T05:04:21.453Z,10.95
2018-10-21T05:06:51.279Z,7.37
2018-10-21T05:09:22.443Z,10.00
2018-10-21T05:11:52.583Z,8.60
2018-10-21T05:14:23.086Z,10.80
2018-10-21T05:16:52.547Z,9.05
2018-10-21T05:19:21.795Z,11.15
2018-10-21T05:21:51.476Z,8.78
2018-10-21T05:24:21.524Z,8.18
2018-10-21T05:26:51.415Z,10.10
2018-10-21T05:29:21.905Z,8.05
2018-10-21T05:31:51.169Z,7.30
2018-10-21T05:34:20.785Z,7.12
2018-10-21T05:36:50.919Z,7.60
2018-10-21T05:39:20.921Z,9.65
2018-10-21T05:41:52.345Z,9.05
2018-10-21T05:44:22.442Z,8.63
2018-10-21T05:46:52.884Z,7.95
2018-10-21T05:49:22.065Z,9.40
2018-10-21T05:51:58.864Z,9.40
2018-10-21T05:54:32.379Z,7.62
2018-10-21T05:57:03.157Z,9.63
2018-10-21T05:59:32.765Z,9.95
2018-10-21T06:02:04.076Z,9.08
2018-10-21T06:04:34.284Z,12.43
2018-10-21T06:07:09.489Z,7.60
2018-10-21T06:09:39.436Z,6.97
2018-10-21T06:12:09.602Z,8.93
2018-10-21T06:14:40.905Z,7.20
2018-10-21T06:17:18.503Z,9.58
2018-10-21T06:19:51.034Z,7.22
2018-10-21T06:22:23.708Z,8.08
2018-10-21T06:24:53.582Z,12.28
2018-10-21T06:27:23.427Z,10.65
2018-10-21T06:29:54.178Z,8.63
2018-10-21T06:32:23.934Z,9.10
2018-10-21T06:34:53.357Z,12.58
2018-10-21T06:37:23.467Z,11.30
2018-10-21T06:39:53.484Z,9.80
2018-10-21T06:42:23.198Z,8.50
2018-10-21T06:44:53.165Z,10.40
2018-10-21T06:47:22.370Z,11.22
2018-10-21T06:49:51.921Z,9.20
2018-10-21T06:52:21.208Z,9.83
2018-10-21T06:54:50.967Z,9.73
2018-10-21T06:57:21.189Z,9.43
2018-10-21T06:59:52.004Z,9.13
2018-10-21T07:02:25.723Z,8.80
2018-10-21T07:07:55.288Z,10.85
2018-10-21T07:10:24.806Z,5.85
2018-10-21T07:12:54.940Z,8.30
2018-10-21T07:15:29.031Z,9.48
2018-10-21T07:17:58.379Z,10.30
2018-10-21T07:20:27.644Z,9.90
2018-10-21T07:22:57.110Z,8.13
2018-10-21T07:25:26.317Z,10.65
2018-10-21T07:27:55.553Z,9.78
2018-10-21T07:30:26.128Z,8.18
2018-10-21T07:32:55.885Z,12.05
2018-10-21T07:35:25.157Z,12.60
2018-10-21T07:37:57.720Z,10.60
2018-10-21T07:40:27.026Z,9.48
2018-10-21T07:42:56.296Z,9.48
2018-10-21T07:45:26.382Z,8.70
2018-10-21T07:47:56.576Z,10.03
2018-10-21T07:50:27.489Z,8.38
2018-10-21T07:52:58.298Z,10.15
2018-10-21T07:55:27.990Z,11.45
2018-10-21T07:57:57.331Z,10.03
2018-10-21T08:00:28.098Z,8.98
2018-10-21T08:02:58.674Z,10.32
2018-10-21T08:05:39.064Z,6.80
2018-10-21T08:08:28.525Z,10.30
2018-10-21T08:10:58.102Z,9.23
2018-10-21T08:13:27.924Z,8.00
2018-10-21T08:15:58.412Z,7.95
2018-10-21T08:18:27.802Z,11.70
2018-10-21T08:20:56.973Z,8.68
2018-10-21T08:23:26.899Z,10.63
2018-10-21T08:25:56.083Z,12.70
2018-10-21T08:28:25.696Z,12.33
2018-10-21T08:30:55.092Z,11.60
2018-10-21T08:33:25.136Z,11.20
2018-10-21T08:35:54.834Z,9.50
2018-10-21T08:38:23.950Z,9.13
2018-10-21T08:40:55.780Z,9.93
2018-10-21T08:43:24.988Z,10.27
2018-10-21T08:45:54.985Z,9.03
2018-10-21T08:48:24.136Z,8.60
2018-10-21T08:50:53.662Z,8.07
2018-10-21T08:53:22.870Z,11.43
2018-10-21T08:55:52.180Z,8.70
2018-10-21T08:58:21.362Z,9.10
2018-10-21T09:00:50.600Z,8.90
2018-10-21T09:03:19.806Z,9.00
2018-10-21T09:05:49.085Z,10.77
2018-10-21T09:08:18.308Z,9.27
2018-10-21T09:10:47.556Z,8.90
2018-10-21T09:13:16.803Z,11.30
2018-10-21T09:15:45.975Z,10.47
2018-10-21T09:18:15.389Z,10.00
2018-10-21T09:21:32.300Z,11.03
2018-10-21T09:24:01.493Z,14.17
2018-10-21T09:26:31.145Z,13.50
2018-10-21T09:29:01.353Z,13.67
2018-10-21T09:31:32.081Z,11.77
2018-10-21T09:34:01.676Z,11.90
2018-10-21T09:36:30.872Z,12.10
2018-10-21T09:39:01.113Z,11.20
2018-10-21T09:41:44.899Z,11.60
2018-10-21T09:44:14.594Z,7.97
2018-10-21T09:46:43.874Z,9.33
2018-10-21T09:49:13.665Z,9.43
2018-10-21T09:51:42.892Z,7.30
2018-10-21T09:54:12.090Z,7.47
2018-10-21T09:56:41.376Z,7.10
2018-10-21T10:02:37.297Z,8.77
2018-10-21T10:05:06.959Z,8.20
2018-10-21T10:07:36.515Z,7.30
2018-10-21T10:10:07.337Z,7.70
2018-10-21T10:12:37.780Z,7.10
2018-10-21T10:15:08.220Z,7.27
2018-10-21T10:17:50.670Z,9.43
2018-10-21T10:20:19.955Z,8.43
2018-10-21T10:22:49.607Z,7.17
2018-10-21T10:25:18.919Z,6.90
2018-10-21T10:27:48.166Z,5.50
2018-10-21T10:30:17.408Z,6.40
2018-10-21T10:32:47.215Z,6.40
2018-10-21T10:35:16.506Z,6.50
2018-10-21T10:37:45.694Z,7.43
2018-10-21T10:40:14.995Z,6.87
2018-10-21T10:42:44.367Z,5.43
2018-10-21T10:45:13.601Z,5.83
2018-10-21T10:47:42.833Z,5.73
2018-10-21T10:50:12.409Z,6.57
2018-10-21T10:52:42.168Z,6.00
2018-10-21T10:55:11.581Z,6.47
2018-10-21T10:57:41.113Z,5.97
2018-10-21T11:00:11.788Z,5.20
2018-10-21T11:02:40.886Z,4.90
2018-10-21T11:05:11.195Z,7.73
2018-10-21T11:07:40.375Z,5.93
2018-10-21T11:10:10.121Z,8.20
2018-10-21T11:12:39.605Z,4.77
2018-10-21T11:15:09.663Z,5.90
2018-10-21T11:17:39.853Z,6.53
2018-10-21T11:20:10.101Z,5.37
2018-10-21T11:22:39.557Z,5.87
2018-10-21T11:25:09.666Z,6.60
2018-10-21T11:27:38.815Z,7.30
2018-10-21T11:30:08.031Z,7.90
2018-10-21T11:32:37.573Z,4.77
2018-10-21T11:35:08.393Z,5.97
2018-10-21T11:37:37.711Z,5.90
2018-10-21T11:40:07.204Z,5.30
2018-10-21T11:42:37.125Z,3.93
2018-10-21T11:45:08.147Z,5.70
2018-10-21T11:47:38.619Z,5.30
2018-10-21T11:50:08.553Z,5.00
2018-10-21T11:52:39.124Z,4.40
2018-10-21T11:55:09.140Z,4.43
2018-10-21T12:00:13.733Z,4.60
2018-10-21T12:02:43.757Z,3.30
2018-10-21T12:05:13.025Z,4.00
2018-10-21T12:07:42.791Z,2.90
2018-10-21T12:10:16.548Z,3.30
2018-10-21T12:12:46.601Z,3.00
2018-10-21T12:15:16.601Z,4.00
2018-10-21T12:17:46.235Z,3.37
2018-10-21T12:20:16.413Z,3.43
2018-10-21T12:22:47.597Z,3.60
2018-10-21T12:25:17.921Z,3.63
2018-10-21T12:27:47.503Z,3.30
2018-10-21T12:30:16.922Z,3.57
2018-10-21T12:32:46.967Z,3.50
2018-10-21T12:35:16.756Z,3.40
2018-10-21T12:37:46.686Z,2.57
2018-10-21T12:40:16.479Z,3.03
2018-10-21T12:42:47.006Z,4.07
2018-10-21T12:45:17.483Z,4.00
2018-10-21T12:47:47.597Z,3.17
2018-10-21T12:50:17.121Z,3.63
2018-10-21T12:52:46.327Z,3.50
2018-10-21T12:55:16.126Z,3.90
2018-10-21T12:57:45.223Z,4.73
2018-10-21T13:00:15.062Z,3.70
2018-10-21T13:02:45.102Z,4.10
2018-10-21T13:05:14.925Z,5.03
2018-10-21T13:07:45.029Z,4.80
2018-10-21T13:10:14.486Z,3.50
2018-10-21T13:12:43.668Z,4.60
2018-10-21T13:15:12.902Z,5.27
2018-10-21T13:17:42.535Z,2.60
2018-10-21T13:20:12.561Z,3.70
2018-10-21T13:22:41.810Z,2.83
2018-10-21T13:25:11.739Z,3.67
2018-10-21T13:27:41.741Z,2.93
2018-10-21T13:30:12.643Z,3.13
2018-10-21T13:32:42.969Z,2.73
2018-10-21T13:35:12.432Z,3.40
2018-10-21T13:37:41.663Z,3.60
2018-10-21T13:40:11.130Z,4.67
2018-10-21T13:42:40.780Z,3.60
2018-10-21T13:45:10.279Z,4.03
2018-10-21T13:47:39.585Z,2.53
2018-10-21T13:50:08.951Z,4.27
2018-10-21T13:52:40.060Z,4.03
2018-10-21T13:55:09.539Z,3.33
2018-10-21T13:57:39.473Z,3.87
2018-10-21T14:00:09.467Z,3.70
2018-10-21T14:02:39.201Z,3.13
2018-10-21T14:05:09.325Z,3.20
2018-10-21T14:07:39.901Z,3.03
2018-10-21T14:10:10.568Z,2.90
2018-10-21T14:12:42.521Z,3.07
2018-10-21T14:15:13.379Z,3.17
2018-10-21T14:17:42.589Z,3.17
2018-10-21T14:20:15.149Z,4.70
2018-10-21T14:22:45.180Z,2.50
2018-10-21T14:25:14.812Z,3.20
2018-10-21T14:27:44.204Z,2.93
2018-10-21T14:30:14.611Z,3.40
2018-10-21T14:32:43.776Z,2.60
2018-10-21T14:35:13.456Z,3.90
2018-10-21T14:37:42.756Z,4.67
2018-10-21T14:40:13.426Z,4.13
2018-10-21T14:42:42.975Z,3.63
2018-10-21T14:45:13.069Z,2.97
2018-10-21T14:47:42.937Z,3.47
2018-10-21T14:50:12.847Z,3.07
2018-10-21T14:52:42.154Z,3.33
2018-10-21T14:55:12.453Z,3.30
2018-10-21T14:57:46.431Z,4.60
2018-10-21T15:00:16.824Z,3.03
2018-10-21T15:02:48.079Z,3.40
2018-10-21T15:05:18.520Z,3.80
2018-10-21T15:07:51.693Z,3.30
2018-10-21T15:10:22.410Z,3.63
2018-10-21T15:12:51.542Z,3.20
2018-10-21T15:15:20.728Z,3.33
2018-10-21T15:17:50.227Z,3.80
2018-10-21T15:20:19.843Z,4.37
2018-10-21T15:22:49.803Z,2.67
2018-10-21T15:25:20.049Z,3.93
2018-10-21T15:27:51.255Z,2.60
2018-10-21T15:30:27.387Z,3.03
2018-10-21T15:32:56.705Z,4.07
2018-10-21T15:35:26.829Z,3.97
2018-10-21T15:37:56.308Z,5.70
2018-10-21T15:40:26.042Z,3.73
2018-10-21T15:42:55.835Z,4.80
2018-10-21T15:45:25.134Z,3.07
2018-10-21T15:47:54.383Z,3.57
2018-10-21T15:50:23.706Z,4.25
2018-10-21T15:52:52.863Z,3.10
2018-10-21T15:55:22.159Z,3.37
2018-10-21T15:57:51.433Z,4.70
2018-10-21T16:00:21.033Z,3.63
2018-10-21T16:02:50.387Z,5.23
2018-10-21T16:05:19.682Z,4.43
2018-10-21T16:07:48.896Z,2.75
2018-10-21T16:10:18.213Z,4.35
2018-10-21T16:12:47.441Z,2.70
2018-10-21T16:15:17.108Z,6.50
2018-10-21T16:17:47.405Z,4.60
2018-10-21T16:20:16.913Z,4.35
2018-10-21T16:22:46.431Z,4.55
2018-10-21T16:25:16.258Z,3.25
2018-10-21T16:27:45.598Z,4.60
2018-10-21T16:30:16.202Z,4.65
2018-10-21T16:32:45.695Z,4.83
2018-10-21T16:35:15.483Z,2.80
2018-10-21T16:37:45.494Z,3.45
2018-10-21T16:40:16.019Z,3.17
2018-10-21T16:42:48.696Z,5.35
2018-10-21T16:45:19.379Z,4.67
2018-10-21T16:47:49.456Z,5.10
2018-10-21T16:50:19.359Z,5.87
2018-10-21T16:52:49.039Z,4.08
2018-10-21T16:55:18.758Z,5.25
2018-10-21T16:57:47.918Z,5.53
2018-10-21T17:00:18.392Z,5.40
2018-10-21T17:02:49.867Z,5.53
2018-10-21T17:05:19.091Z,4.65
2018-10-21T17:07:49.931Z,5.05
2018-10-21T17:10:19.725Z,6.42
2018-10-21T17:12:49.447Z,4.75
2018-10-21T17:15:19.636Z,5.92
2018-10-21T17:17:49.427Z,9.15
2018-10-21T17:20:19.079Z,5.50
2018-10-21T17:22:49.609Z,4.55
2018-10-21T17:25:18.893Z,6.20
2018-10-21T17:27:48.606Z,6.75
2018-10-21T17:30:18.713Z,6.83
2018-10-21T17:32:48.056Z,6.12
2018-10-21T17:35:18.000Z,5.72
2018-10-21T17:37:48.899Z,5.47
2018-10-21T17:40:18.790Z,5.17
2018-10-21T17:42:49.959Z,6.20
2018-10-21T17:45:19.313Z,6.47
2018-10-21T17:47:49.349Z,6.03
2018-10-21T17:50:18.565Z,7.05
2018-10-21T17:52:49.150Z,7.12
2018-10-21T17:55:18.536Z,7.70
2018-10-21T17:57:47.997Z,7.25
2018-10-21T18:00:20.151Z,8.90
2018-10-21T18:02:51.527Z,6.80
2018-10-21T18:05:22.583Z,8.40
2018-10-21T18:07:52.811Z,7.62
2018-10-21T18:10:23.229Z,7.60
2018-10-21T18:12:52.476Z,7.08
2018-10-21T18:15:21.691Z,8.98
2018-10-21T18:17:56.921Z,7.40
2018-10-21T18:20:26.715Z,8.03
2018-10-21T18:22:56.820Z,8.15
2018-10-21T18:25:26.369Z,9.38
2018-10-21T18:27:57.510Z,6.30
2018-10-21T18:30:27.855Z,8.93
2018-10-21T18:32:58.960Z,8.70
2018-10-21T18:35:33.112Z,7.42
2018-10-21T18:38:02.690Z,11.10
2018-10-21T18:40:32.627Z,8.53
2018-10-21T18:43:02.582Z,9.28
2018-10-21T18:45:39.191Z,7.28
2018-10-21T18:48:10.271Z,7.95
2018-10-21T18:50:39.522Z,7.80
2018-10-21T18:53:08.848Z,8.05
2018-10-21T18:55:38.523Z,8.45
2018-10-21T18:58:07.819Z,9.53
2018-10-21T19:00:37.823Z,7.40
2018-10-21T19:03:07.067Z,10.50
2018-10-21T19:05:36.383Z,8.85
2018-10-21T19:08:07.153Z,8.28
2018-10-21T19:10:37.307Z,9.10
2018-10-21T19:13:06.588Z,7.62
2018-10-21T19:15:36.375Z,7.58
2018-10-21T19:18:06.975Z,7.80
2018-10-21T19:20:36.361Z,8.50
2018-10-21T19:23:06.011Z,9.60
2018-10-21T19:25:35.379Z,7.67
2018-10-21T19:28:06.765Z,8.75
2018-10-21T19:30:36.925Z,9.48
2018-10-21T19:33:07.781Z,10.53
2018-10-21T19:35:37.729Z,14.38
2018-10-21T19:38:07.694Z,8.15
2018-10-21T19:40:38.295Z,8.75
2018-10-21T19:43:09.472Z,10.50
2018-10-21T19:45:38.818Z,9.43
2018-10-21T19:48:08.541Z,8.58
2018-10-21T19:50:39.231Z,13.28
2018-10-21T19:53:08.707Z,10.23
2018-10-21T19:55:38.208Z,9.68
2018-10-21T19:58:08.727Z,14.55
2018-10-21T20:00:38.449Z,12.50
2018-10-21T20:03:09.599Z,13.25
2018-10-21T20:05:39.709Z,13.48
2018-10-21T20:08:09.961Z,12.58
2018-10-21T20:10:39.827Z,12.80
2018-10-21T20:13:09.101Z,12.45
2018-10-21T20:15:39.395Z,10.53
2018-10-21T20:18:10.022Z,17.45
2018-10-21T20:20:41.543Z,11.75
2018-10-21T20:24:41.785Z,16.02
2018-10-21T20:27:13.000Z,11.05
2018-10-21T20:29:42.341Z,10.70
2018-10-21T20:32:12.873Z,13.72
2018-10-21T20:34:43.511Z,12.30
2018-10-21T20:37:14.807Z,14.07
2018-10-21T20:39:44.102Z,10.45
2018-10-21T20:42:13.539Z,11.78
2018-10-21T20:44:44.012Z,10.60
2018-10-21T20:47:13.566Z,11.03
2018-10-21T20:49:42.769Z,12.60
2018-10-21T20:52:12.746Z,13.05
2018-10-21T20:54:46.600Z,13.93
2018-10-21T20:57:16.419Z,12.95
2018-10-21T20:59:46.741Z,12.10
2018-10-21T21:02:16.685Z,12.53
2018-10-21T21:04:47.140Z,12.93
2018-10-21T21:07:16.439Z,12.82
2018-10-21T21:09:45.697Z,12.60
2018-10-21T21:12:15.051Z,13.90
2018-10-21T21:14:44.639Z,13.85
2018-10-21T21:17:13.873Z,12.43
2018-10-21T21:19:43.065Z,13.48
2018-10-21T21:22:13.092Z,12.28
2018-10-21T21:24:42.634Z,8.93
2018-10-21T21:27:12.722Z,11.22
2018-10-21T21:29:42.046Z,15.68
2018-10-21T21:32:11.615Z,9.98
2018-10-21T21:34:41.332Z,12.40
2018-10-21T21:37:10.558Z,14.30
2018-10-21T21:39:40.278Z,14.73
2018-10-21T21:42:09.984Z,14.33
2018-10-21T21:44:39.321Z,11.70
2018-10-21T21:47:09.520Z,12.60
2018-10-21T21:49:39.691Z,14.68
2018-10-21T21:52:09.939Z,13.08
2018-10-21T21:54:39.485Z,13.90
2018-10-21T21:57:10.199Z,13.70
2018-10-21T21:59:47.513Z,12.98
2018-10-21T22:02:17.534Z,11.97
2018-10-21T22:04:47.616Z,15.83
2018-10-21T22:07:18.796Z,15.60
2018-10-21T22:09:53.837Z,12.90
2018-10-21T22:12:23.542Z,16.52
2018-10-21T22:14:56.917Z,20.92
2018-10-21T22:17:29.098Z,17.70
2018-10-21T22:19:58.482Z,15.98
2018-10-21T22:22:31.093Z,14.43
2018-10-21T22:25:03.826Z,17.02
2018-10-21T22:27:37.843Z,17.42
2018-10-21T22:30:08.906Z,23.00
2018-10-21T22:32:38.619Z,19.52
2018-10-21T22:35:09.372Z,15.93
2018-10-21T22:37:39.432Z,18.27
2018-10-21T22:40:09.270Z,20.60
2018-10-21T22:42:40.408Z,17.62
2018-10-21T22:45:13.431Z,21.30
2018-10-21T22:47:43.380Z,18.35
2018-10-21T22:50:13.355Z,21.02
2018-10-21T22:52:45.010Z,21.37
2018-10-21T22:55:14.483Z,19.32
2018-10-21T22:57:46.385Z,16.10
2018-10-21T23:00:17.241Z,17.67
2018-10-21T23:02:50.742Z,18.55
2018-10-21T23:05:23.860Z,20.15
2018-10-21T23:07:54.058Z,22.62
2018-10-21T23:10:23.542Z,22.50
2018-10-21T23:12:52.951Z,24.37
2018-10-21T23:16:25.696Z,20.20
2018-10-21T23:19:04.043Z,25.15
2018-10-21T23:21:34.248Z,18.30
2018-10-21T23:24:03.873Z,27.10
2018-10-21T23:26:33.057Z,22.07
2018-10-21T23:29:05.409Z,20.95
2018-10-21T23:31:35.051Z,23.10
2018-10-21T23:34:06.813Z,17.48
2018-10-21T23:36:38.998Z,19.92
2018-10-21T23:39:09.182Z,20.00
2018-10-21T23:41:39.923Z,19.37
2018-10-21T23:44:12.720Z,27.48
2018-10-21T23:46:43.763Z,18.50
2018-10-21T23:49:14.378Z,19.75
2018-10-21T23:51:43.577Z,20.12
2018-10-21T23:54:13.156Z,20.15
2018-10-21T23:56:42.261Z,16.35
2018-10-21T23:59:12.982Z,13.68
